sensor_id;sensor_type;location;lat;lon;timestamp;pressure;altitude;pressure_sealevel;temperature;humidity
79617;BME280;69097;52.132;5.422;2024-02-23T00:00:50;98792.78;;;5.62;100.00
79617;BME280;69097;52.132;5.422;2024-02-23T00:03:17;98806.91;;;5.68;100.00
79617;BME280;69097;52.132;5.422;2024-02-23T00:05:43;98817.69;;;5.66;100.00
79617;BME280;69097;52.132;5.422;2024-02-23T00:08:10;98815.25;;;5.68;100.00
79617;BME280;69097;52.132;5.422;2024-02-23T00:10:36;98815.53;;;5.70;100.00
79617;BME280;69097;52.132;5.422;2024-02-23T00:13:03;98821.78;;;5.74;100.00
79617;BME280;69097;52.132;5.422;2024-02-23T00:15:29;98818.41;;;5.79;100.00
79617;BME280;69097;52.132;5.422;2024-02-23T00:17:56;98830.25;;;5.83;100.00
79617;BME280;69097;52.132;5.422;2024-02-23T00:20:23;98825.75;;;5.85;100.00
79617;BME280;69097;52.132;5.422;2024-02-23T00:22:49;98835.22;;;5.88;100.00
79617;BME280;69097;52.132;5.422;2024-02-23T00:25:16;98827.50;;;5.92;100.00
79617;BME280;69097;52.132;5.422;2024-02-23T00:27:42;98837.09;;;5.91;100.00
79617;BME280;69097;52.132;5.422;2024-02-23T00:30:10;98825.19;;;5.90;100.00
79617;BME280;69097;52.132;5.422;2024-02-23T00:32:37;98837.44;;;5.93;100.00
79617;BME280;69097;52.132;5.422;2024-02-23T00:35:04;98836.19;;;5.94;100.00
79617;BME280;69097;52.132;5.422;2024-02-23T00:37:32;98849.97;;;5.97;100.00
79617;BME280;69097;52.132;5.422;2024-02-23T00:40:02;98853.56;;;5.98;100.00
79617;BME280;69097;52.132;5.422;2024-02-23T00:42:31;98848.63;;;6.02;100.00
79617;BME280;69097;52.132;5.422;2024-02-23T00:44:57;98858.88;;;6.05;100.00
79617;BME280;69097;52.132;5.422;2024-02-23T00:47:24;98859.28;;;6.03;100.00
79617;BME280;69097;52.132;5.422;2024-02-23T00:49:50;98855.75;;;6.03;100.00
79617;BME280;69097;52.132;5.422;2024-02-23T00:52:17;98865.66;;;6.04;100.00
79617;BME280;69097;52.132;5.422;2024-02-23T00:54:43;98868.44;;;6.04;100.00
79617;BME280;69097;52.132;5.422;2024-02-23T00:57:10;98866.31;;;6.08;100.00
79617;BME280;69097;52.132;5.422;2024-02-23T00:59:37;98871.53;;;6.06;100.00
79617;BME280;69097;52.132;5.422;2024-02-23T01:02:03;98871.66;;;6.02;100.00
79617;BME280;69097;52.132;5.422;2024-02-23T01:04:31;98865.31;;;6.02;100.00
79617;BME280;69097;52.132;5.422;2024-02-23T01:06:58;98882.00;;;6.02;100.00
79617;BME280;69097;52.132;5.422;2024-02-23T01:09:24;98881.25;;;6.01;100.00
79617;BME280;69097;52.132;5.422;2024-02-23T01:11:51;98896.19;;;5.95;100.00
79617;BME280;69097;52.132;5.422;2024-02-23T01:14:17;98891.50;;;5.92;100.00
79617;BME280;69097;52.132;5.422;2024-02-23T01:16:44;98917.66;;;5.82;100.00
79617;BME280;69097;52.132;5.422;2024-02-23T01:19:12;98906.13;;;5.71;100.00
79617;BME280;69097;52.132;5.422;2024-02-23T01:21:39;98920.25;;;5.64;100.00
79617;BME280;69097;52.132;5.422;2024-02-23T01:24:06;98905.56;;;5.63;100.00
79617;BME280;69097;52.132;5.422;2024-02-23T01:26:32;98921.50;;;5.63;100.00
79617;BME280;69097;52.132;5.422;2024-02-23T01:28:59;98913.03;;;5.54;99.77
79617;BME280;69097;52.132;5.422;2024-02-23T01:31:25;98913.25;;;5.47;100.00
79617;BME280;69097;52.132;5.422;2024-02-23T01:33:53;98938.28;;;5.47;100.00
79617;BME280;69097;52.132;5.422;2024-02-23T01:36:19;98940.72;;;5.45;100.00
79617;BME280;69097;52.132;5.422;2024-02-23T01:38:47;98951.38;;;5.46;100.00
79617;BME280;69097;52.132;5.422;2024-02-23T01:41:14;98945.72;;;5.50;100.00
79617;BME280;69097;52.132;5.422;2024-02-23T01:43:40;98944.06;;;5.52;100.00
79617;BME280;69097;52.132;5.422;2024-02-23T01:46:08;98931.38;;;5.51;100.00
79617;BME280;69097;52.132;5.422;2024-02-23T01:48:34;98941.63;;;5.54;100.00
79617;BME280;69097;52.132;5.422;2024-02-23T01:51:01;98952.75;;;5.54;100.00
79617;BME280;69097;52.132;5.422;2024-02-23T01:53:28;98967.84;;;5.53;100.00
79617;BME280;69097;52.132;5.422;2024-02-23T01:55:54;98974.88;;;5.58;100.00
79617;BME280;69097;52.132;5.422;2024-02-23T01:58:22;98957.31;;;5.61;100.00
79617;BME280;69097;52.132;5.422;2024-02-23T02:00:48;98965.09;;;5.66;100.00
79617;BME280;69097;52.132;5.422;2024-02-23T02:03:15;98970.19;;;5.67;100.00
79617;BME280;69097;52.132;5.422;2024-02-23T02:05:41;98967.31;;;5.71;100.00
79617;BME280;69097;52.132;5.422;2024-02-23T02:08:09;98981.84;;;5.75;100.00
79617;BME280;69097;52.132;5.422;2024-02-23T02:10:36;98978.44;;;5.71;100.00
79617;BME280;69097;52.132;5.422;2024-02-23T02:13:04;98991.56;;;5.70;100.00
79617;BME280;69097;52.132;5.422;2024-02-23T02:15:30;98983.22;;;5.70;100.00
79617;BME280;69097;52.132;5.422;2024-02-23T02:17:57;98990.13;;;5.66;100.00
79617;BME280;69097;52.132;5.422;2024-02-23T02:20:24;98977.88;;;5.63;100.00
79617;BME280;69097;52.132;5.422;2024-02-23T02:22:52;98992.91;;;5.66;100.00
79617;BME280;69097;52.132;5.422;2024-02-23T02:25:19;98980.19;;;5.65;100.00
79617;BME280;69097;52.132;5.422;2024-02-23T02:27:45;98981.78;;;5.66;100.00
79617;BME280;69097;52.132;5.422;2024-02-23T02:30:12;98968.75;;;5.63;100.00
79617;BME280;69097;52.132;5.422;2024-02-23T02:32:39;98981.88;;;5.62;100.00
79617;BME280;69097;52.132;5.422;2024-02-23T02:35:06;98986.75;;;5.58;100.00
79617;BME280;69097;52.132;5.422;2024-02-23T02:37:33;98980.09;;;5.56;100.00
79617;BME280;69097;52.132;5.422;2024-02-23T02:39:59;98982.53;;;5.54;100.00
79617;BME280;69097;52.132;5.422;2024-02-23T02:42:26;98992.22;;;5.49;100.00
79617;BME280;69097;52.132;5.422;2024-02-23T02:44:55;98995.88;;;5.46;100.00
79617;BME280;69097;52.132;5.422;2024-02-23T02:47:21;98982.31;;;5.48;100.00
79617;BME280;69097;52.132;5.422;2024-02-23T02:49:48;98993.88;;;5.47;100.00
79617;BME280;69097;52.132;5.422;2024-02-23T02:52:15;98987.88;;;5.48;100.00
79617;BME280;69097;52.132;5.422;2024-02-23T02:54:41;98997.44;;;5.47;100.00
79617;BME280;69097;52.132;5.422;2024-02-23T02:57:08;99001.44;;;5.46;100.00
79617;BME280;69097;52.132;5.422;2024-02-23T02:59:35;99000.69;;;5.46;100.00
79617;BME280;69097;52.132;5.422;2024-02-23T03:02:02;98997.44;;;5.47;100.00
79617;BME280;69097;52.132;5.422;2024-02-23T03:04:29;98994.09;;;5.40;100.00
79617;BME280;69097;52.132;5.422;2024-02-23T03:06:55;98992.91;;;5.41;100.00
79617;BME280;69097;52.132;5.422;2024-02-23T03:09:22;99001.56;;;5.43;100.00
79617;BME280;69097;52.132;5.422;2024-02-23T03:11:48;99005.91;;;5.44;100.00
79617;BME280;69097;52.132;5.422;2024-02-23T03:14:14;99009.03;;;5.46;100.00
79617;BME280;69097;52.132;5.422;2024-02-23T03:16:43;99015.78;;;5.45;100.00
79617;BME280;69097;52.132;5.422;2024-02-23T03:19:10;99012.56;;;5.46;100.00
79617;BME280;69097;52.132;5.422;2024-02-23T03:21:36;99017.47;;;5.42;100.00
79617;BME280;69097;52.132;5.422;2024-02-23T03:24:05;99015.88;;;5.41;100.00
79617;BME280;69097;52.132;5.422;2024-02-23T03:26:32;99019.13;;;5.40;100.00
79617;BME280;69097;52.132;5.422;2024-02-23T03:28:58;99024.78;;;5.36;100.00
79617;BME280;69097;52.132;5.422;2024-02-23T03:31:25;99025.56;;;5.37;100.00
79617;BME280;69097;52.132;5.422;2024-02-23T03:33:51;99022.78;;;5.37;100.00
79617;BME280;69097;52.132;5.422;2024-02-23T03:36:18;99022.56;;;5.31;99.92
79617;BME280;69097;52.132;5.422;2024-02-23T03:38:44;99032.22;;;5.27;99.98
79617;BME280;69097;52.132;5.422;2024-02-23T03:41:11;99029.88;;;5.25;100.00
79617;BME280;69097;52.132;5.422;2024-02-23T03:43:37;99031.13;;;5.24;99.91
79617;BME280;69097;52.132;5.422;2024-02-23T03:46:06;99039.56;;;5.21;100.00
79617;BME280;69097;52.132;5.422;2024-02-23T03:48:32;99045.97;;;5.18;100.00
79617;BME280;69097;52.132;5.422;2024-02-23T03:50:59;99054.00;;;5.16;100.00
79617;BME280;69097;52.132;5.422;2024-02-23T03:53:25;99052.31;;;5.18;100.00
79617;BME280;69097;52.132;5.422;2024-02-23T03:55:52;99048.44;;;5.16;100.00
79617;BME280;69097;52.132;5.422;2024-02-23T03:58:19;99045.22;;;5.17;100.00
79617;BME280;69097;52.132;5.422;2024-02-23T04:00:46;99043.53;;;5.20;100.00
79617;BME280;69097;52.132;5.422;2024-02-23T04:03:12;99043.44;;;5.23;100.00
79617;BME280;69097;52.132;5.422;2024-02-23T04:05:38;99036.25;;;5.26;100.00
79617;BME280;69097;52.132;5.422;2024-02-23T04:08:05;99047.00;;;5.24;100.00
79617;BME280;69097;52.132;5.422;2024-02-23T04:10:32;99051.00;;;5.23;100.00
79617;BME280;69097;52.132;5.422;2024-02-23T04:13:00;99060.22;;;5.20;100.00
79617;BME280;69097;52.132;5.422;2024-02-23T04:15:27;99059.88;;;5.18;100.00
79617;BME280;69097;52.132;5.422;2024-02-23T04:17:53;99052.06;;;5.13;100.00
79617;BME280;69097;52.132;5.422;2024-02-23T04:20:20;99069.97;;;5.12;100.00
79617;BME280;69097;52.132;5.422;2024-02-23T04:22:46;99066.50;;;5.07;99.69
79617;BME280;69097;52.132;5.422;2024-02-23T04:25:13;99066.19;;;5.06;99.67
79617;BME280;69097;52.132;5.422;2024-02-23T04:27:39;99066.50;;;5.07;100.00
79617;BME280;69097;52.132;5.422;2024-02-23T04:30:09;99070.44;;;5.10;100.00
79617;BME280;69097;52.132;5.422;2024-02-23T04:32:36;99066.84;;;5.10;100.00
79617;BME280;69097;52.132;5.422;2024-02-23T04:35:03;99074.84;;;5.07;100.00
79617;BME280;69097;52.132;5.422;2024-02-23T04:37:29;99074.84;;;5.07;100.00
79617;BME280;69097;52.132;5.422;2024-02-23T04:40:00;99082.53;;;5.03;99.99
79617;BME280;69097;52.132;5.422;2024-02-23T04:42:27;99080.50;;;5.04;100.00
79617;BME280;69097;52.132;5.422;2024-02-23T04:44:53;99082.63;;;5.00;100.00
79617;BME280;69097;52.132;5.422;2024-02-23T04:47:21;99091.75;;;5.00;100.00
79617;BME280;69097;52.132;5.422;2024-02-23T04:49:47;99098.94;;;4.98;100.00
79617;BME280;69097;52.132;5.422;2024-02-23T04:52:15;99096.59;;;4.96;100.00
79617;BME280;69097;52.132;5.422;2024-02-23T04:54:42;99098.16;;;4.97;99.65
79617;BME280;69097;52.132;5.422;2024-02-23T04:57:09;99090.69;;;4.94;99.67
79617;BME280;69097;52.132;5.422;2024-02-23T04:59:35;99097.38;;;4.97;100.00
79617;BME280;69097;52.132;5.422;2024-02-23T05:02:02;99102.84;;;5.00;100.00
79617;BME280;69097;52.132;5.422;2024-02-23T05:04:28;99103.16;;;5.02;100.00
79617;BME280;69097;52.132;5.422;2024-02-23T05:06:55;99104.75;;;5.03;100.00
79617;BME280;69097;52.132;5.422;2024-02-23T05:09:22;99099.19;;;5.03;100.00
79617;BME280;69097;52.132;5.422;2024-02-23T05:11:48;99097.50;;;5.06;100.00
79617;BME280;69097;52.132;5.422;2024-02-23T05:14:15;99098.31;;;5.07;100.00
79617;BME280;69097;52.132;5.422;2024-02-23T05:16:41;99099.09;;;5.07;100.00
79617;BME280;69097;52.132;5.422;2024-02-23T05:19:08;99095.63;;;5.03;99.69
79617;BME280;69097;52.132;5.422;2024-02-23T05:21:34;99087.38;;;4.99;99.80
79617;BME280;69097;52.132;5.422;2024-02-23T05:24:01;99097.16;;;5.04;100.00
79617;BME280;69097;52.132;5.422;2024-02-23T05:26:27;99092.31;;;5.08;99.55
79617;BME280;69097;52.132;5.422;2024-02-23T05:28:55;99096.31;;;5.07;99.53
79617;BME280;69097;52.132;5.422;2024-02-23T05:31:45;99089.44;;;5.12;100.00
79617;BME280;69097;52.132;5.422;2024-02-23T05:34:12;99091.41;;;5.11;100.00
79617;BME280;69097;52.132;5.422;2024-02-23T05:36:39;99107.25;;;5.14;99.97
79617;BME280;69097;52.132;5.422;2024-02-23T05:39:06;99095.69;;;5.16;100.00
79617;BME280;69097;52.132;5.422;2024-02-23T05:41:33;99093.66;;;5.16;99.74
79617;BME280;69097;52.132;5.422;2024-02-23T05:44:00;99098.91;;;5.14;100.00
79617;BME280;69097;52.132;5.422;2024-02-23T05:46:27;99096.13;;;5.14;99.65
79617;BME280;69097;52.132;5.422;2024-02-23T05:48:53;99097.06;;;5.07;99.56
79617;BME280;69097;52.132;5.422;2024-02-23T05:51:20;99092.84;;;5.03;98.92
79617;BME280;69097;52.132;5.422;2024-02-23T05:53:47;99100.75;;;5.04;99.93
79617;BME280;69097;52.132;5.422;2024-02-23T05:56:13;99095.97;;;5.05;99.18
79617;BME280;69097;52.132;5.422;2024-02-23T05:58:40;99104.66;;;5.07;99.67
79617;BME280;69097;52.132;5.422;2024-02-23T06:01:06;99091.53;;;5.07;99.32
79617;BME280;69097;52.132;5.422;2024-02-23T06:03:33;99089.53;;;5.08;99.51
79617;BME280;69097;52.132;5.422;2024-02-23T06:06:00;99098.75;;;5.05;99.25
79617;BME280;69097;52.132;5.422;2024-02-23T06:08:27;99096.63;;;5.09;98.93
79617;BME280;69097;52.132;5.422;2024-02-23T06:10:53;99094.19;;;5.11;98.24
79617;BME280;69097;52.132;5.422;2024-02-23T06:13:20;99099.41;;;5.09;98.43
79617;BME280;69097;52.132;5.422;2024-02-23T06:15:46;99097.06;;;5.07;97.72
79617;BME280;69097;52.132;5.422;2024-02-23T06:18:13;99104.22;;;5.09;98.40
79617;BME280;69097;52.132;5.422;2024-02-23T06:20:39;99106.53;;;5.10;98.23
79617;BME280;69097;52.132;5.422;2024-02-23T06:23:06;99106.91;;;5.12;98.57
79617;BME280;69097;52.132;5.422;2024-02-23T06:25:32;99109.66;;;5.12;98.49
79617;BME280;69097;52.132;5.422;2024-02-23T06:27:59;99095.25;;;5.17;98.35
79617;BME280;69097;52.132;5.422;2024-02-23T06:30:25;99111.03;;;5.20;98.13
79617;BME280;69097;52.132;5.422;2024-02-23T06:32:55;99108.25;;;5.20;97.90
79617;BME280;69097;52.132;5.422;2024-02-23T06:35:21;99112.13;;;5.23;97.81
79617;BME280;69097;52.132;5.422;2024-02-23T06:37:48;99115.69;;;5.23;97.69
79617;BME280;69097;52.132;5.422;2024-02-23T06:40:15;99112.47;;;5.25;97.66
79617;BME280;69097;52.132;5.422;2024-02-23T06:42:41;99114.06;;;5.26;97.37
79617;BME280;69097;52.132;5.422;2024-02-23T06:45:08;99110.84;;;5.27;97.26
79617;BME280;69097;52.132;5.422;2024-02-23T06:47:34;99127.41;;;5.31;97.18
79617;BME280;69097;52.132;5.422;2024-02-23T06:50:01;99131.31;;;5.33;96.09
79617;BME280;69097;52.132;5.422;2024-02-23T06:52:29;99118.19;;;5.34;96.58
79617;BME280;69097;52.132;5.422;2024-02-23T06:54:56;99120.97;;;5.34;96.52
79617;BME280;69097;52.132;5.422;2024-02-23T06:57:22;99119.06;;;5.31;96.70
79617;BME280;69097;52.132;5.422;2024-02-23T06:59:52;99115.41;;;5.34;96.49
79617;BME280;69097;52.132;5.422;2024-02-23T07:02:18;99114.88;;;5.39;96.49
79617;BME280;69097;52.132;5.422;2024-02-23T07:04:45;99120.78;;;5.41;96.04
79617;BME280;69097;52.132;5.422;2024-02-23T07:07:12;99116.41;;;5.40;95.47
79617;BME280;69097;52.132;5.422;2024-02-23T07:09:38;99110.53;;;5.38;94.97
79617;BME280;69097;52.132;5.422;2024-02-23T07:12:05;99113.31;;;5.38;95.10
79617;BME280;69097;52.132;5.422;2024-02-23T07:14:32;99119.19;;;5.40;95.43
79617;BME280;69097;52.132;5.422;2024-02-23T07:17:05;99121.97;;;5.40;95.13
79617;BME280;69097;52.132;5.422;2024-02-23T07:19:32;99121.97;;;5.40;95.31
79617;BME280;69097;52.132;5.422;2024-02-23T07:21:58;99121.44;;;5.45;95.31
79617;BME280;69097;52.132;5.422;2024-02-23T07:24:25;99115.13;;;5.44;95.32
79617;BME280;69097;52.132;5.422;2024-02-23T07:26:51;99126.13;;;5.48;95.17
79617;BME280;69097;52.132;5.422;2024-02-23T07:29:18;99117.34;;;5.49;94.97
79617;BME280;69097;52.132;5.422;2024-02-23T07:31:44;99113.69;;;5.52;95.56
79617;BME280;69097;52.132;5.422;2024-02-23T07:34:11;99114.78;;;5.55;94.92
79617;BME280;69097;52.132;5.422;2024-02-23T07:36:38;99104.00;;;5.57;95.11
79617;BME280;69097;52.132;5.422;2024-02-23T07:39:05;99109.47;;;5.60;95.18
79617;BME280;69097;52.132;5.422;2024-02-23T07:41:32;99093.91;;;5.63;95.50
79617;BME280;69097;52.132;5.422;2024-02-23T07:43:59;99098.59;;;5.66;95.10
79617;BME280;69097;52.132;5.422;2024-02-23T07:46:25;99097.69;;;5.69;94.88
79617;BME280;69097;52.132;5.422;2024-02-23T07:48:54;99084.47;;;5.73;94.65
79617;BME280;69097;52.132;5.422;2024-02-23T07:51:21;99087.91;;;5.77;94.99
79617;BME280;69097;52.132;5.422;2024-02-23T07:53:47;99094.16;;;5.81;94.51
79617;BME280;69097;52.132;5.422;2024-02-23T07:56:14;99088.97;;;5.83;94.70
79617;BME280;69097;52.132;5.422;2024-02-23T07:58:40;99073.81;;;5.84;93.23
79617;BME280;69097;52.132;5.422;2024-02-23T08:01:07;99080.94;;;5.85;93.95
79617;BME280;69097;52.132;5.422;2024-02-23T08:03:36;99079.72;;;5.86;93.29
79617;BME280;69097;52.132;5.422;2024-02-23T08:06:04;99077.38;;;5.84;93.57
79617;BME280;69097;52.132;5.422;2024-02-23T08:08:31;99078.59;;;5.83;92.99
79617;BME280;69097;52.132;5.422;2024-02-23T08:11:01;99073.38;;;5.85;93.47
79617;BME280;69097;52.132;5.422;2024-02-23T08:13:29;99080.59;;;5.83;92.57
79617;BME280;69097;52.132;5.422;2024-02-23T08:15:55;99067.88;;;5.82;92.95
79617;BME280;69097;52.132;5.422;2024-02-23T08:18:22;99076.59;;;5.84;91.92
79617;BME280;69097;52.132;5.422;2024-02-23T08:20:51;99068.25;;;5.84;91.91
79617;BME280;69097;52.132;5.422;2024-02-23T08:23:20;99071.03;;;5.84;92.13
79617;BME280;69097;52.132;5.422;2024-02-23T08:25:47;99073.81;;;5.84;92.42
79617;BME280;69097;52.132;5.422;2024-02-23T08:28:13;99066.69;;;5.83;92.22
79617;BME280;69097;52.132;5.422;2024-02-23T08:30:39;99064.56;;;5.87;92.11
79617;BME280;69097;52.132;5.422;2024-02-23T08:33:06;99069.38;;;5.86;91.82
79617;BME280;69097;52.132;5.422;2024-02-23T08:35:35;99059.44;;;5.85;91.30
79617;BME280;69097;52.132;5.422;2024-02-23T08:38:03;99068.25;;;5.84;91.15
79617;BME280;69097;52.132;5.422;2024-02-23T08:40:30;99072.25;;;5.83;91.52
79617;BME280;69097;52.132;5.422;2024-02-23T08:42:56;99056.00;;;5.81;90.79
79617;BME280;69097;52.132;5.422;2024-02-23T08:45:23;99055.19;;;5.81;90.79
79617;BME280;69097;52.132;5.422;2024-02-23T08:47:50;99054.41;;;5.80;90.77
79617;BME280;69097;52.132;5.422;2024-02-23T08:50:18;99051.19;;;5.82;91.80
79617;BME280;69097;52.132;5.422;2024-02-23T08:52:45;99036.84;;;5.83;91.55
79617;BME280;69097;52.132;5.422;2024-02-23T08:55:11;99040.94;;;5.79;90.87
79617;BME280;69097;52.132;5.422;2024-02-23T08:57:38;99052.09;;;5.79;91.56
79617;BME280;69097;52.132;5.422;2024-02-23T09:00:05;99054.53;;;5.77;92.90
79617;BME280;69097;52.132;5.422;2024-02-23T09:02:32;99044.75;;;5.72;93.14
79617;BME280;69097;52.132;5.422;2024-02-23T09:05:01;99060.09;;;5.77;93.54
79617;BME280;69097;52.132;5.422;2024-02-23T09:07:28;99057.31;;;5.77;93.90
79617;BME280;69097;52.132;5.422;2024-02-23T09:09:55;99057.31;;;5.77;93.67
79617;BME280;69097;52.132;5.422;2024-02-23T09:12:22;99064.09;;;5.76;93.60
79617;BME280;69097;52.132;5.422;2024-02-23T09:14:49;99067.53;;;5.80;93.48
79617;BME280;69097;52.132;5.422;2024-02-23T09:17:15;99058.78;;;5.81;94.51
79617;BME280;69097;52.132;5.422;2024-02-23T09:19:42;99076.22;;;5.82;93.92
79617;BME280;69097;52.132;5.422;2024-02-23T09:22:08;99081.03;;;5.81;94.43
79617;BME280;69097;52.132;5.422;2024-02-23T09:24:35;99071.81;;;5.84;94.29
79617;BME280;69097;52.132;5.422;2024-02-23T09:27:05;99070.25;;;5.83;94.23
79617;BME280;69097;52.132;5.422;2024-02-23T09:29:31;99072.59;;;5.85;94.47
79617;BME280;69097;52.132;5.422;2024-02-23T09:31:58;99075.69;;;5.87;94.80
79617;BME280;69097;52.132;5.422;2024-02-23T09:34:26;99068.38;;;5.93;94.82
79617;BME280;69097;52.132;5.422;2024-02-23T09:36:53;99069.13;;;5.93;94.71
79617;BME280;69097;52.132;5.422;2024-02-23T09:39:20;99075.03;;;5.95;94.73
79617;BME280;69097;52.132;5.422;2024-02-23T09:41:50;99076.28;;;5.94;94.89
79617;BME280;69097;52.132;5.422;2024-02-23T09:44:18;99080.94;;;5.97;95.13
79617;BME280;69097;52.132;5.422;2024-02-23T09:46:44;99082.06;;;6.00;95.53
79617;BME280;69097;52.132;5.422;2024-02-23T09:49:11;99088.72;;;6.02;95.58
79617;BME280;69097;52.132;5.422;2024-02-23T09:51:39;99081.63;;;6.01;94.88
79617;BME280;69097;52.132;5.422;2024-02-23T09:54:05;99095.97;;;6.00;94.59
79617;BME280;69097;52.132;5.422;2024-02-23T09:56:33;99099.63;;;5.97;94.85
79617;BME280;69097;52.132;5.422;2024-02-23T09:59:01;99112.00;;;5.96;94.61
79617;BME280;69097;52.132;5.422;2024-02-23T10:01:32;99104.88;;;5.95;95.42
79617;BME280;69097;52.132;5.422;2024-02-23T10:04:02;99108.31;;;5.99;95.08
79617;BME280;69097;52.132;5.422;2024-02-23T10:06:32;99104.53;;;6.05;95.54
79617;BME280;69097;52.132;5.422;2024-02-23T10:08:59;99106.53;;;6.17;95.28
79617;BME280;69097;52.132;5.422;2024-02-23T10:11:26;99099.97;;;6.24;94.67
79617;BME280;69097;52.132;5.422;2024-02-23T10:13:52;99110.88;;;6.31;95.08
79617;BME280;69097;52.132;5.422;2024-02-23T10:16:20;99098.19;;;6.30;94.51
79617;BME280;69097;52.132;5.422;2024-02-23T10:18:47;99104.50;;;6.31;94.43
79617;BME280;69097;52.132;5.422;2024-02-23T10:21:15;99120.34;;;6.34;95.17
79617;BME280;69097;52.132;5.422;2024-02-23T10:23:44;99108.75;;;6.35;94.79
79617;BME280;69097;52.132;5.422;2024-02-23T10:26:10;99113.88;;;6.37;94.77
79617;BME280;69097;52.132;5.422;2024-02-23T10:28:37;99123.34;;;6.39;94.79
79617;BME280;69097;52.132;5.422;2024-02-23T10:31:06;99122.75;;;6.44;94.99
79617;BME280;69097;52.132;5.422;2024-02-23T10:33:38;99118.88;;;6.42;94.71
79617;BME280;69097;52.132;5.422;2024-02-23T10:36:05;99130.81;;;6.42;94.85
79617;BME280;69097;52.132;5.422;2024-02-23T10:38:35;99135.25;;;6.40;94.80
79617;BME280;69097;52.132;5.422;2024-02-23T10:41:05;99140.03;;;6.39;94.70
79617;BME280;69097;52.132;5.422;2024-02-23T10:43:41;99138.03;;;6.40;95.06
79617;BME280;69097;52.132;5.422;2024-02-23T10:46:09;99146.06;;;6.38;95.21
79617;BME280;69097;52.132;5.422;2024-02-23T10:48:41;99146.06;;;6.38;95.23
79617;BME280;69097;52.132;5.422;2024-02-23T10:51:08;99148.09;;;6.37;95.55
79617;BME280;69097;52.132;5.422;2024-02-23T10:53:37;99166.34;;;6.38;95.13
79617;BME280;69097;52.132;5.422;2024-02-23T10:56:06;99148.94;;;6.34;95.52
79617;BME280;69097;52.132;5.422;2024-02-23T10:58:33;99148.50;;;6.36;95.44
79617;BME280;69097;52.132;5.422;2024-02-23T11:01:05;99156.75;;;6.39;94.76
79617;BME280;69097;52.132;5.422;2024-02-23T11:03:35;99149.53;;;6.42;95.00
79617;BME280;69097;52.132;5.422;2024-02-23T11:06:06;99150.72;;;6.53;95.14
79617;BME280;69097;52.132;5.422;2024-02-23T11:08:33;99158.28;;;6.65;94.53
79617;BME280;69097;52.132;5.422;2024-02-23T11:11:10;99169.31;;;6.69;93.69
79617;BME280;69097;52.132;5.422;2024-02-23T11:13:38;99157.63;;;6.74;93.78
79617;BME280;69097;52.132;5.422;2024-02-23T11:16:06;99159.38;;;6.80;93.63
79617;BME280;69097;52.132;5.422;2024-02-23T11:18:34;99165.94;;;6.86;92.80
79617;BME280;69097;52.132;5.422;2024-02-23T11:21:03;99161.38;;;6.92;93.25
79617;BME280;69097;52.132;5.422;2024-02-23T11:23:49;99151.88;;;7.02;93.01
79617;BME280;69097;52.132;5.422;2024-02-23T11:26:19;99153.16;;;7.10;92.55
79617;BME280;69097;52.132;5.422;2024-02-23T11:28:49;99159.47;;;7.23;91.69
79617;BME280;69097;52.132;5.422;2024-02-23T11:31:19;99169.16;;;7.31;92.13
79617;BME280;69097;52.132;5.422;2024-02-23T11:33:53;99163.31;;;7.38;90.97
79617;BME280;69097;52.132;5.422;2024-02-23T11:36:31;99155.47;;;7.46;91.36
79617;BME280;69097;52.132;5.422;2024-02-23T11:39:00;99148.59;;;7.60;91.84
79617;BME280;69097;52.132;5.422;2024-02-23T11:41:28;99150.88;;;7.74;90.15
79617;BME280;69097;52.132;5.422;2024-02-23T11:43:56;99159.56;;;7.76;89.62
79617;BME280;69097;52.132;5.422;2024-02-23T11:46:22;99148.72;;;7.78;90.25
79617;BME280;69097;52.132;5.422;2024-02-23T11:48:49;99168.31;;;7.87;89.72
79617;BME280;69097;52.132;5.422;2024-02-23T11:51:23;99171.00;;;7.90;89.94
79617;BME280;69097;52.132;5.422;2024-02-23T11:53:50;99175.59;;;7.84;88.92
79617;BME280;69097;52.132;5.422;2024-02-23T11:56:18;99170.59;;;7.79;88.94
79617;BME280;69097;52.132;5.422;2024-02-23T11:58:46;99172.75;;;7.75;88.39
79617;BME280;69097;52.132;5.422;2024-02-23T12:01:13;99167.94;;;7.76;88.79
79617;BME280;69097;52.132;5.422;2024-02-23T12:03:40;99178.47;;;7.72;88.38
79617;BME280;69097;52.132;5.422;2024-02-23T12:06:08;99176.13;;;7.70;89.01
79617;BME280;69097;52.132;5.422;2024-02-23T12:08:36;99180.78;;;7.73;88.70
79617;BME280;69097;52.132;5.422;2024-02-23T12:11:06;99175.22;;;7.73;89.18
79617;BME280;69097;52.132;5.422;2024-02-23T12:13:35;99176.88;;;7.71;89.35
79617;BME280;69097;52.132;5.422;2024-02-23T12:16:02;99177.47;;;7.66;88.30
79617;BME280;69097;52.132;5.422;2024-02-23T12:18:29;99175.59;;;7.63;88.73
79617;BME280;69097;52.132;5.422;2024-02-23T12:21:02;99175.59;;;7.63;88.71
79617;BME280;69097;52.132;5.422;2024-02-23T12:23:42;99169.22;;;7.62;88.58
79617;BME280;69097;52.132;5.422;2024-02-23T12:26:12;99175.59;;;7.63;88.96
79617;BME280;69097;52.132;5.422;2024-02-23T12:28:40;99173.34;;;7.70;89.02
79617;BME280;69097;52.132;5.422;2024-02-23T12:31:07;99175.41;;;7.79;88.66
79617;BME280;69097;52.132;5.422;2024-02-23T12:33:37;99182.91;;;7.91;89.30
79617;BME280;69097;52.132;5.422;2024-02-23T12:36:05;99175.66;;;7.93;88.59
79617;BME280;69097;52.132;5.422;2024-02-23T12:38:32;99186.34;;;7.95;87.73
79617;BME280;69097;52.132;5.422;2024-02-23T12:40:59;99190.06;;;7.92;88.48
79617;BME280;69097;52.132;5.422;2024-02-23T12:43:26;99181.38;;;7.90;87.40
79617;BME280;69097;52.132;5.422;2024-02-23T12:45:53;99181.03;;;7.88;87.59
79617;BME280;69097;52.132;5.422;2024-02-23T12:48:21;99193.94;;;7.94;87.98
79617;BME280;69097;52.132;5.422;2024-02-23T12:50:49;99197.72;;;8.00;87.52
79617;BME280;69097;52.132;5.422;2024-02-23T12:53:37;99191.03;;;7.98;87.02
79617;BME280;69097;52.132;5.422;2024-02-23T12:56:06;99188.38;;;7.94;86.71
79617;BME280;69097;52.132;5.422;2024-02-23T12:58:36;99196.88;;;7.91;87.16
79617;BME280;69097;52.132;5.422;2024-02-23T13:01:03;99201.25;;;7.92;87.23
79617;BME280;69097;52.132;5.422;2024-02-23T13:03:29;99211.47;;;7.95;86.76
79617;BME280;69097;52.132;5.422;2024-02-23T13:05:56;99202.59;;;8.09;86.58
79617;BME280;69097;52.132;5.422;2024-02-23T13:08:24;99202.50;;;8.21;86.75